Tuesday, January 23, 2018, 7:23 AM EST
Back to Local

KNEL, Lakehurst Naval Air Station

Location: Lakehurst, NJ, United States Lat: 40.033
Local Time: 7:23 AM EST (12:23 GMT) Lon: -74.317
Time Zone: US/Eastern Elev: 101 ft

Show me the last for .
Show Decoded

2018-01-23 06:00 METAR KNEL 231100Z AUTO 18010KT 10SM BKN009 BKN024 OVC043 12/12 A2979 RMK AO2
                 RAB1010E1036B1046E1058 SLP087 T01220117 PNO $ =
2018-01-23 05:54 METAR KNEL 231054Z AUTO 17012KT 9SM -RA BKN008 BKN024 OVC075 12/12 A2979 =
2018-01-23 05:51 METAR KNEL 231051Z AUTO 17010KT 8SM -RA SCT008 SCT024 OVC044 12/12 A2979 RMK AO2
                 RAB10E36B46 T01220117 PNO $ =
2018-01-23 05:24 METAR KNEL 231024Z AUTO 17008KT 6SM -RA BR FEW008 BKN065 OVC090 12/11 A2981 RMK
                 AO2 RAB10 T01170111 PNO $ =
2018-01-23 05:00 METAR KNEL 231000Z AUTO 16010KT 10SM FEW027 FEW047 OVC090 12/11 A2982 RMK AO2
                 RAB0937E0947 SLP096 T01170111 PNO $ =
2018-01-23 04:12 METAR KNEL 230912Z AUTO 17010KT 10SM SCT007 BKN090 11/10 A2984 RMK AO2 T01060100
                 PNO $ =
2018-01-23 04:00 METAR KNEL 230900Z AUTO 18009KT 10SM SCT090 11/10 A2985 RMK AO2 SLP107 6////
                 T01060100 58036 PNO $ =
2018-01-23 03:00 METAR KNEL 230800Z AUTO 17006KT 8SM CLR 09/09 A2989 RMK AO2 SLP121 T00940094 PNO
                 $ =
2018-01-23 02:00 METAR KNEL 230700Z AUTO 13004KT 6SM BR CLR 07/07 A2993 RMK AO2 SLP135 T00670067
                 PNO $ =
2018-01-23 01:00 METAR KNEL 230600Z AUTO 09003KT 7SM OVC100 07/06 A2996 RMK AO2 SLP144 6////
                 T00670061 10067 20022 58021 PNO $ =
2018-01-23 00:00 METAR KNEL 230500Z AUTO 08004KT 10SM SCT008 OVC110 04/03 A3000 RMK AO2 SLP157
                 T00390028 400390039 PNO $ =
2018-01-22 23:52 METAR KNEL 230452Z AUTO 00000KT 10SM SCT009 OVC110 04/03 A3001 RMK AO2 T00440033
                 PNO $ =
2018-01-22 23:00 METAR KNEL 230400Z AUTO 08003KT 10SM FEW010 03/02 A3004 RMK AO2 SLP171 T00280017
                 PNO $ =
2018-01-22 22:50 METAR KNEL 230350Z AUTO 00000KT 10SM SCT009 03/02 A3005 RMK AO2 T00280022 PNO $
                 =
2018-01-22 22:00 METAR KNEL 230300Z AUTO 08005KT 10SM CLR 04/03 A3003 RMK AO2 SLP168 6////
                 T00440033 58013 PNO $ =
2018-01-22 21:00 METAR KNEL 230200Z AUTO 06004KT 8SM CLR 04/04 A3006 RMK AO2 SLP178 T00440039 PNO
                 $ =
2018-01-22 20:00 METAR KNEL 230100Z AUTO 06004KT 10SM CLR 05/04 A3009 RMK AO2 SLP186 T00500039
                 PNO $ =
2018-01-22 19:00 METAR KNEL 230000Z AUTO 06004KT 10SM CLR 06/04 A3009 RMK AO2 SLP188 6////
                 T00610039 10150 20061 50001 PNO $ =
2018-01-22 18:00 METAR KNEL 222300Z AUTO 09004KT 10SM CLR 06/04 A3010 RMK AO2 SLP191 T00610039
                 PNO $ =
2018-01-22 17:00 METAR KNEL 222200Z AUTO 09006KT 10SM SCT095 08/04 A3010 RMK AO2 SLP192 T00780044
                 PNO $ =
2018-01-22 16:00 METAR KNEL 222100Z AUTO 07007KT 10SM SCT110 12/05 A3009 RMK AO2 SLP190 6////
                 T01220050 55013 PNO $ =
2018-01-22 15:00 METAR KNEL 222000Z AUTO 11007KT 10SM OVC110 13/05 A3010 RMK AO2 SLP190 T01280050
                 PNO $ =
2018-01-22 14:00 METAR KNEL 221900Z AUTO 09007KT 10SM SCT090 SCT110 14/06 A3008 RMK AO2 SLP186
                 T01440056 PNO $ =
2018-01-22 13:00 METAR KNEL 221800Z AUTO 09006KT 10SM SCT065 BKN080 14/06 A3010 RMK AO2 SLP192
                 6//// T01390056 10139 20056 58013 PNO $ =
2018-01-22 12:00 METAR KNEL 221700Z AUTO 00000KT 10SM OVC060 13/06 A3014 RMK AO2 SLP203 T01330056
                 PNO $ =
2018-01-22 11:00 METAR KNEL 221600Z AUTO 00000KT 10SM OVC110 11/04 A3016 RMK AO2 SLP211 T01060044
                 PNO $ =
2018-01-22 10:00 METAR KNEL 221500Z AUTO 00000KT 10SM OVC100 09/04 A3019 RMK AO2 SLP220 6////
                 T00890039 51013 PNO $ =
2018-01-22 09:00 METAR KNEL 221400Z AUTO 10003KT 10SM OVC100 08/03 A3017 RMK AO2 SLP216 T00780033
                 PNO $ =
2018-01-22 08:00 METAR KNEL 221300Z AUTO 13003KT 10SM OVC100 06/03 A3016 RMK AO2 SLP212 T00610033
                 PNO $ =

Support USWX by starting your Amazon purchase here.